Time;durP1;ratioP1;P1;durP2;ratioP2;P2;SDS_P1;SDS_P2;PMS_P1;PMS_P2;Temp;Humidity;BMP_temperature;BMP_pressure;BME280_temperature;BME280_humidity;BME280_pressure;Samples;Min_cycle;Max_cycle;Signal;HPM_P1;HPM_P2
2023/10/08 00:02:13;;;;;;;5.40;3.42;;;14.80;91.80;;;;;;5077170;28;20204;-85
2023/10/08 00:04:40;;;;;;;5.43;3.05;;;15.10;91.90;;;;;;5084852;28;20245;-86
2023/10/08 00:07:08;;;;;;;4.65;3.60;;;15.10;92.20;;;;;;5086947;28;20184;-85
2023/10/08 00:09:38;;;;;;;6.50;2.92;;;15.20;92.00;;;;;;5086227;28;20199;-87
2023/10/08 00:12:04;;;;;;;4.60;3.30;;;15.20;91.80;;;;;;5085047;28;20172;-86
2023/10/08 00:14:30;;;;;;;4.43;3.10;;;15.10;91.60;;;;;;5085529;28;20507;-86
2023/10/08 00:16:55;;;;;;;5.40;3.93;;;15.40;92.20;;;;;;5080497;28;20203;-87
2023/10/08 00:19:21;;;;;;;5.03;4.00;;;14.90;92.60;;;;;;5085936;28;20265;-87
2023/10/08 00:21:48;;;;;;;7.97;5.10;;;15.10;92.30;;;;;;5082467;28;20185;-86
2023/10/08 00:24:15;;;;;;;5.03;3.50;;;15.50;92.70;;;;;;5086657;28;20237;-86
2023/10/08 00:26:40;;;;;;;5.25;3.60;;;14.80;92.40;;;;;;5086827;28;20672;-86
2023/10/08 00:29:16;;;;;;;4.90;3.73;;;15.20;92.90;;;;;;5088954;28;20176;-86
2023/10/08 00:31:45;;;;;;;6.35;3.63;;;15.20;93.20;;;;;;5090906;28;20241;-87
2023/10/08 00:34:13;;;;;;;6.05;4.22;;;15.20;93.20;;;;;;5089461;28;20200;-86
2023/10/08 00:36:44;;;;;;;5.75;4.25;;;15.00;93.10;;;;;;5094448;28;20164;-86
2023/10/08 00:39:14;;;;;;;7.78;3.67;;;15.70;93.40;;;;;;5090937;28;20176;-87
2023/10/08 00:41:42;;;;;;;4.30;3.38;;;15.30;93.30;;;;;;5106790;28;20204;-87
2023/10/08 00:44:15;;;;;;;6.97;3.83;;;15.40;93.40;;;;;;5104945;28;20188;-87
2023/10/08 00:46:47;;;;;;;6.68;4.32;;;15.80;93.70;;;;;;5100089;28;20192;-86
2023/10/08 00:51:52;;;;;;;6.20;3.95;;;15.50;93.50;;;;;;5094351;28;20263;-88
2023/10/08 00:54:19;;;;;;;4.82;3.55;;;15.30;93.60;;;;;;5086484;28;20206;-87
2023/10/08 00:56:50;;;;;;;5.32;3.72;;;15.10;93.10;;;;;;5082053;28;20192;-87
2023/10/08 00:59:16;;;;;;;6.15;3.63;;;15.40;93.10;;;;;;5081801;28;20476;-86
2023/10/08 01:01:51;;;;;;;8.40;3.40;;;15.40;92.30;;;;;;5085371;28;20176;-87
2023/10/08 01:04:26;;;;;;;4.43;3.30;;;15.20;92.00;;;;;;5079520;28;20431;-86
2023/10/08 01:07:10;;;;;;;4.80;3.20;;;15.60;92.30;;;;;;5086344;28;20658;-85
2023/10/08 01:09:35;;;;;;;6.07;3.88;;;16.00;91.80;;;;;;5079969;28;20192;-87
2023/10/08 01:12:15;;;;;;;5.17;3.03;;;15.60;90.80;;;;;;5086683;28;20176;-87
2023/10/08 01:14:42;;;;;;;4.88;3.50;;;15.60;90.90;;;;;;5079488;28;20193;-87
2023/10/08 01:17:16;;;;;;;7.15;3.30;;;15.70;91.40;;;;;;5085209;28;20192;-87
2023/10/08 01:19:54;;;;;;;4.57;3.45;;;15.90;91.90;;;;;;5085816;28;20219;-87
2023/10/08 01:22:21;;;;;;;6.43;3.88;;;15.80;91.60;;;;;;5083184;28;20295;-87
2023/10/08 01:24:48;;;;;;;3.70;3.00;;;15.70;91.00;;;;;;5078083;28;20329;-87
2023/10/08 01:27:24;;;;;;;5.10;4.05;;;16.80;91.90;;;;;;5080762;28;20184;-87
2023/10/08 01:29:51;;;;;;;8.60;3.80;;;15.80;91.40;;;;;;5082164;28;20187;-87
2023/10/08 01:32:19;;;;;;;5.28;3.30;;;16.20;91.60;;;;;;5082569;28;20235;-87
2023/10/08 01:34:45;;;;;;;3.72;3.20;;;16.00;91.40;;;;;;5083489;28;20176;-87
2023/10/08 01:37:21;;;;;;;5.30;3.20;;;16.10;91.00;;;;;;5083374;28;20567;-87
2023/10/08 01:39:49;;;;;;;4.07;3.00;;;15.80;90.90;;;;;;5078372;28;20215;-87
2023/10/08 01:42:17;;;;;;;4.38;3.50;;;16.20;91.50;;;;;;5079318;28;20191;-87
2023/10/08 01:44:54;;;;;;;5.28;3.55;;;15.40;91.60;;;;;;5076144;28;20184;-87
2023/10/08 01:47:19;;;;;;;5.82;3.60;;;15.60;91.70;;;;;;5088672;28;20183;-87
2023/10/08 01:49:46;;;;;;;6.00;3.30;;;16.10;92.50;;;;;;5085726;28;20188;-87
2023/10/08 01:52:20;;;;;;;4.88;3.15;;;16.10;92.80;;;;;;5084711;28;20207;-87
2023/10/08 01:54:46;;;;;;;5.88;3.50;;;15.80;92.80;;;;;;5083312;28;20785;-87
2023/10/08 01:57:12;;;;;;;6.03;3.93;;;15.60;92.90;;;;;;5079560;28;20270;-87
2023/10/08 01:59:38;;;;;;;4.82;3.67;;;15.50;93.10;;;;;;5083260;28;20200;-87
2023/10/08 02:02:05;;;;;;;5.00;3.28;;;15.50;93.20;;;;;;5084665;28;20571;-87
2023/10/08 02:04:33;;;;;;;5.20;3.03;;;15.40;93.50;;;;;;5080031;28;20184;-87
2023/10/08 02:06:59;;;;;;;5.00;2.90;;;15.80;93.80;;;;;;5083866;28;20191;-87
2023/10/08 02:09:26;;;;;;;4.00;3.50;;;15.40;93.70;;;;;;5077931;28;20180;-86
2023/10/08 02:11:55;;;;;;;6.47;3.45;;;15.60;94.00;;;;;;5079052;28;20438;-88
2023/10/08 02:14:22;;;;;;;5.75;3.58;;;15.90;94.30;;;;;;5076391;28;20226;-87
2023/10/08 02:16:48;;;;;;;3.45;2.47;;;15.10;94.80;;;;;;5079789;28;20261;-87
2023/10/08 02:19:18;;;;;;;5.03;3.50;;;15.20;95.30;;;;;;5081846;28;20180;-87
2023/10/08 02:21:46;;;;;;;9.52;4.20;;;14.60;95.10;;;;;;5084199;28;20223;-86
2023/10/08 02:24:12;;;;;;;4.20;3.60;;;14.80;95.40;;;;;;5081982;28;20229;-86
2023/10/08 02:26:38;;;;;;;5.20;3.20;;;14.70;95.60;;;;;;5077559;28;20208;-85
2023/10/08 02:29:10;;;;;;;11.73;4.00;;;14.70;95.80;;;;;;5077003;28;20195;-86
2023/10/08 02:31:41;;;;;;;5.60;3.20;;;14.70;96.10;;;;;;5077491;28;20196;-86
2023/10/08 02:34:07;;;;;;;4.38;3.28;;;14.60;96.40;;;;;;5077251;28;20780;-86
2023/10/08 02:36:36;;;;;;;6.28;3.08;;;14.30;96.70;;;;;;5081774;28;20197;-86
2023/10/08 02:39:06;;;;;;;4.38;3.17;;;14.50;97.00;;;;;;5086424;28;20191;-86
2023/10/08 02:41:32;;;;;;;4.35;3.05;;;14.60;97.10;;;;;;5085791;28;20212;-85
2023/10/08 02:43:59;;;;;;;4.95;2.78;;;14.10;96.90;;;;;;5080896;28;20571;-86
2023/10/08 02:46:26;;;;;;;7.72;4.78;;;14.30;97.00;;;;;;5081853;28;20189;-86
2023/10/08 02:48:52;;;;;;;4.00;3.15;;;14.20;97.40;;;;;;5084809;28;20762;-86
2023/10/08 02:51:20;;;;;;;5.18;3.15;;;14.10;97.70;;;;;;5082718;28;20191;-85
2023/10/08 02:53:46;;;;;;;4.30;3.00;;;14.10;97.70;;;;;;5082757;28;20196;-85
2023/10/08 02:56:15;;;;;;;5.50;3.60;;;14.20;97.90;;;;;;5086112;28;20787;-85
2023/10/08 02:58:43;;;;;;;4.90;3.40;;;13.70;97.70;;;;;;5088333;28;20533;-85
2023/10/08 03:01:12;;;;;;;3.80;2.70;;;14.10;97.70;;;;;;5089031;28;20203;-86
2023/10/08 03:03:46;;;;;;;5.47;3.75;;;13.80;97.50;;;;;;5083542;28;20290;-86
2023/10/08 03:06:14;;;;;;;5.43;3.95;;;14.10;97.80;;;;;;5086770;28;20734;-86
2023/10/08 03:08:41;;;;;;;4.53;3.47;;;13.40;97.50;;;;;;5088862;28;20255;-85
2023/10/08 03:11:16;;;;;;;6.50;3.08;;;13.50;97.70;;;;;;5083213;28;20230;-85
2023/10/08 03:13:52;;;;;;;5.13;3.13;;;13.80;98.00;;;;;;5084866;28;20207;-86
2023/10/08 03:16:21;;;;;;;4.75;2.83;;;13.70;98.50;;;;;;5094334;22;20771;-87
2023/10/08 03:18:50;;;;;;;5.95;3.28;;;14.30;99.90;;;;;;5075204;28;20177;-87
2023/10/08 03:21:33;;;;;;;4.15;3.00;;;15.70;99.90;;;;;;5073021;28;20295;-87
2023/10/08 03:23:59;;;;;;;4.45;3.15;;;13.90;98.70;;;;;;5069715;28;20204;-87
2023/10/08 03:28:57;;;;;;;4.70;2.50;;;14.00;98.20;;;;;;5088047;28;20184;-87
2023/10/08 03:31:44;;;;;;;5.57;3.53;;;13.70;97.90;;;;;;5074133;28;20215;-87
2023/10/08 03:34:13;;;;;;;5.60;2.83;;;14.20;98.00;;;;;;5089775;28;20267;-87
2023/10/08 03:36:44;;;;;;;5.90;3.10;;;13.40;97.20;;;;;;5067461;28;20188;-87
2023/10/08 03:39:19;;;;;;;6.70;3.55;;;13.80;97.00;;;;;;5063345;28;20187;-87
2023/10/08 03:44:29;;;;;;;4.30;3.38;;;14.00;97.40;;;;;;5086991;28;20199;-87
2023/10/08 03:46:57;;;;;;;7.50;4.20;;;14.00;97.30;;;;;;5066529;28;20181;-87
2023/10/08 03:51:51;;;;;;;5.23;3.53;;;14.40;97.30;;;;;;5084351;28;20180;-87
2023/10/08 03:54:18;;;;;;;4.05;3.17;;;14.10;97.40;;;;;;5066174;28;20182;-87
2023/10/08 03:56:45;;;;;;;5.10;3.60;;;14.00;97.50;;;;;;5070257;28;20184;-87
2023/10/08 03:59:12;;;;;;;6.00;3.50;;;13.90;97.80;;;;;;5064547;28;20188;-87
2023/10/08 04:01:40;;;;;;;5.38;3.45;;;13.80;97.70;;;;;;5068396;28;20213;-87
2023/10/08 04:04:12;;;;;;;4.25;2.90;;;14.00;98.30;;;;;;5066404;28;20578;-87
2023/10/08 04:06:38;;;;;;;5.25;3.53;;;14.00;98.40;;;;;;5066191;28;20176;-87
2023/10/08 04:14:16;;;;;;;4.43;3.00;;;13.90;98.90;;;;;;5094576;28;20673;-88
2023/10/08 04:16:42;;;;;;;6.45;3.50;;;13.50;99.10;;;;;;5091657;28;20210;-88
2023/10/08 04:19:09;;;;;;;4.15;3.10;;;13.40;98.70;;;;;;5083460;28;20177;-87
2023/10/08 04:21:34;;;;;;;5.45;3.47;;;14.00;98.30;;;;;;5078986;28;20261;-88
2023/10/08 04:24:08;;;;;;;5.73;3.30;;;13.80;98.10;;;;;;5070169;28;20204;-87
2023/10/08 04:26:34;;;;;;;5.68;3.08;;;14.10;98.10;;;;;;5067066;28;20185;-87
2023/10/08 04:29:02;;;;;;;5.15;3.17;;;13.80;97.60;;;;;;5071300;28;20188;-87
2023/10/08 04:31:37;;;;;;;4.68;2.85;;;14.10;97.70;;;;;;5058105;28;20188;-87
2023/10/08 04:34:16;;;;;;;6.53;3.40;;;13.60;97.50;;;;;;5067052;28;20208;-87
2023/10/08 04:36:45;;;;;;;5.07;3.30;;;13.50;97.40;;;;;;5049488;28;20195;-86
2023/10/08 04:39:15;;;;;;;5.25;3.10;;;13.70;97.10;;;;;;5060083;28;20185;-87
2023/10/08 04:41:45;;;;;;;5.07;3.30;;;13.70;96.40;;;;;;5087913;28;20221;-87
2023/10/08 04:44:15;;;;;;;5.70;2.90;;;14.10;96.30;;;;;;5069797;28;20185;-87
2023/10/08 04:46:48;;;;;;;4.53;3.78;;;14.00;96.10;;;;;;5071474;28;20185;-87
2023/10/08 04:49:27;;;;;;;6.45;4.50;;;14.40;96.60;;;;;;5059055;28;20189;-89
2023/10/08 04:51:58;;;;;;;5.85;3.63;;;14.00;96.20;;;;;;5095686;28;20184;-87
2023/10/08 04:54:29;;;;;;;6.60;3.20;;;13.90;96.30;;;;;;5095412;28;20164;-87
2023/10/08 04:56:57;;;;;;;4.95;3.38;;;14.00;96.50;;;;;;5078092;28;20188;-89
2023/10/08 04:59:27;;;;;;;5.10;3.17;;;14.40;96.60;;;;;;5067429;28;20212;-89
2023/10/08 05:07:40;;;;;;;5.10;3.60;;;13.70;96.70;;;;;;5086419;28;20214;-88
2023/10/08 05:12:45;;;;;;;6.75;3.58;;;14.10;97.40;;;;;;5087430;28;20710;-89
2023/10/08 05:28:46;;;;;;;7.93;3.35;;;13.60;96.90;;;;;;5083902;28;20176;-89
2023/10/08 05:36:35;;;;;;;4.43;3.42;;;14.20;97.50;;;;;;5083135;28;20219;-90
2023/10/08 05:39:19;;;;;;;4.95;3.30;;;13.90;97.30;;;;;;5065182;28;20230;-90
2023/10/08 05:44:39;;;;;;;5.85;3.60;;;14.40;97.40;;;;;;5087955;28;20191;-86
2023/10/08 05:50:28;;;;;;;5.45;2.72;;;13.60;97.40;;;;;;5085610;28;20298;-84
2023/10/08 05:52:50;;;;;;;5.45;2.83;;;13.20;97.40;;;;;;5089869;28;20273;-84
2023/10/08 05:55:26;;;;;;;5.22;2.67;;;13.60;97.50;;;;;;5070647;28;20652;-84
2023/10/08 05:58:03;;;;;;;6.32;3.47;;;14.10;97.60;;;;;;5071324;28;20559;-85
2023/10/08 06:00:46;;;;;;;4.72;3.00;;;14.00;97.70;;;;;;5090647;28;20200;-86
2023/10/08 06:03:31;;;;;;;6.93;3.20;;;13.60;97.30;;;;;;5068207;28;20200;-84
2023/10/08 06:06:57;;;;;;;3.30;2.60;;;13.80;97.50;;;;;;5066483;28;20176;-84
2023/10/08 06:09:20;;;;;;;6.25;3.05;;;13.70;97.20;;;;;;5077640;28;20714;-84
2023/10/08 06:12:06;;;;;;;4.35;3.10;;;13.50;97.00;;;;;;5068723;28;20283;-84
2023/10/08 06:15:07;;;;;;;5.05;2.92;;;13.40;97.30;;;;;;5067299;28;20238;-86
2023/10/08 06:20:24;;;;;;;5.25;3.10;;;14.20;97.70;;;;;;5087030;28;20242;-84
2023/10/08 06:22:50;;;;;;;4.30;2.85;;;13.80;97.30;;;;;;5072986;28;20291;-86
2023/10/08 06:25:17;;;;;;;5.30;3.20;;;14.00;97.10;;;;;;5066849;28;20207;-86
2023/10/08 06:27:44;;;;;;;5.07;3.15;;;14.00;97.00;;;;;;5068281;28;20172;-86
2023/10/08 06:30:16;;;;;;;8.63;3.60;;;13.90;96.70;;;;;;5072387;28;20251;-86
2023/10/08 06:32:44;;;;;;;5.65;3.00;;;13.90;96.70;;;;;;5086937;28;20208;-85
2023/10/08 06:35:17;;;;;;;4.75;3.40;;;13.70;96.60;;;;;;5090350;28;20210;-84
2023/10/08 06:37:45;;;;;;;6.22;3.58;;;14.10;97.00;;;;;;5066480;28;20314;-85
2023/10/08 06:43:22;;;;;;;5.05;3.10;;;13.90;96.90;;;;;;5002322;28;20256;-85
2023/10/08 06:45:52;;;;;;;4.93;3.00;;;13.50;96.60;;;;;;5010468;28;20199;-85
2023/10/08 06:48:21;;;;;;;4.68;3.10;;;14.50;97.20;;;;;;5050870;28;20181;-85
2023/10/08 06:50:48;;;;;;;4.25;3.10;;;14.20;97.10;;;;;;5069960;28;20254;-85
2023/10/08 06:53:14;;;;;;;5.22;2.95;;;13.80;96.90;;;;;;5069841;28;20204;-85
2023/10/08 06:55:43;;;;;;;4.60;3.00;;;13.90;96.90;;;;;;5069522;28;20215;-85
2023/10/08 06:58:09;;;;;;;5.82;2.70;;;14.30;96.90;;;;;;5069653;28;20572;-85
2023/10/08 07:00:39;;;;;;;7.53;3.40;;;14.20;96.80;;;;;;5071296;28;20215;-85
2023/10/08 07:03:15;;;;;;;5.57;3.13;;;14.30;96.90;;;;;;5066780;28;20216;-85
2023/10/08 07:05:44;;;;;;;5.60;3.25;;;14.30;96.70;;;;;;5070809;28;20183;-85
2023/10/08 07:08:12;;;;;;;4.82;3.25;;;14.30;96.70;;;;;;5073022;28;20168;-85
2023/10/08 07:10:40;;;;;;;4.60;3.20;;;14.50;96.80;;;;;;5078642;28;20185;-85
2023/10/08 07:13:07;;;;;;;4.95;3.08;;;14.80;96.70;;;;;;5086621;28;20229;-85
2023/10/08 07:15:38;;;;;;;4.97;3.20;;;15.30;96.70;;;;;;5079368;28;20945;-85
2023/10/08 07:18:09;;;;;;;7.07;2.65;;;15.30;96.70;;;;;;5068442;28;20614;-85
2023/10/08 07:20:39;;;;;;;8.00;3.17;;;15.30;96.50;;;;;;5072377;28;20219;-85
2023/10/08 07:23:24;;;;;;;5.90;3.45;;;15.80;96.00;;;;;;5073052;28;20205;-85
2023/10/08 07:26:13;;;;;;;6.00;3.60;;;15.90;95.80;;;;;;5075321;28;20184;-85
2023/10/08 07:28:42;;;;;;;4.13;2.97;;;15.30;95.40;;;;;;5077617;28;20270;-85
2023/10/08 07:31:18;;;;;;;5.80;3.60;;;15.60;94.50;;;;;;5079878;28;20188;-85
2023/10/08 07:33:44;;;;;;;3.90;3.30;;;16.30;94.00;;;;;;5072727;28;20209;-85
2023/10/08 07:36:14;;;;;;;5.00;3.63;;;16.80;94.40;;;;;;5073926;28;20614;-85
2023/10/08 07:38:43;;;;;;;7.18;4.40;;;17.20;93.80;;;;;;5072918;28;20445;-85
2023/10/08 07:41:12;;;;;;;5.30;3.50;;;17.70;93.20;;;;;;5077702;28;20204;-86
2023/10/08 07:43:38;;;;;;;5.35;3.60;;;17.60;92.60;;;;;;5069497;28;20197;-86
2023/10/08 07:46:05;;;;;;;7.07;3.95;;;17.60;92.40;;;;;;5070910;28;20637;-86
2023/10/08 07:48:31;;;;;;;8.48;4.90;;;17.90;92.30;;;;;;5073976;28;20188;-86
2023/10/08 07:50:57;;;;;;;5.20;4.70;;;17.60;92.30;;;;;;5070975;28;20195;-86
2023/10/08 07:53:24;;;;;;;5.97;3.60;;;18.10;92.60;;;;;;5076850;28;20769;-86
2023/10/08 07:55:51;;;;;;;6.63;3.50;;;18.30;92.40;;;;;;5064166;28;20210;-86
2023/10/08 07:58:17;;;;;;;7.60;3.30;;;18.50;92.20;;;;;;5073985;28;20550;-85
2023/10/08 08:00:51;;;;;;;8.75;4.10;;;18.70;92.30;;;;;;5072076;28;20204;-86
2023/10/08 08:03:18;;;;;;;3.80;3.45;;;18.10;91.90;;;;;;5095822;28;20193;-86
2023/10/08 08:05:44;;;;;;;6.03;3.72;;;18.40;91.90;;;;;;5091222;28;20248;-85
2023/10/08 08:08:14;;;;;;;5.27;4.17;;;18.50;91.70;;;;;;5076160;28;20730;-86
2023/10/08 08:10:41;;;;;;;5.40;3.58;;;18.20;91.60;;;;;;5075678;28;20185;-86
2023/10/08 08:13:08;;;;;;;4.65;3.20;;;18.60;92.30;;;;;;5073862;28;20279;-85
2023/10/08 08:15:39;;;;;;;5.30;3.33;;;18.30;92.10;;;;;;5068999;28;20196;-86
2023/10/08 08:18:06;;;;;;;5.20;3.00;;;18.60;92.50;;;;;;5075277;28;20180;-85
2023/10/08 08:20:35;;;;;;;5.65;3.88;;;18.40;92.10;;;;;;5073933;28;20212;-85
2023/10/08 08:23:08;;;;;;;5.68;3.60;;;19.20;93.00;;;;;;5084810;28;20601;-86
2023/10/08 08:26:06;;;;;;;5.10;3.40;;;18.80;92.60;;;;;;5085715;28;20171;-86
2023/10/08 08:28:32;;;;;;;5.53;3.30;;;19.10;92.20;;;;;;5082750;28;20211;-85
2023/10/08 08:31:04;;;;;;;5.90;3.63;;;18.80;92.10;;;;;;5086805;28;20189;-86
2023/10/08 08:36:29;;;;;;;6.93;4.18;;;18.90;91.20;;;;;;5097816;28;20178;-86
2023/10/08 08:38:55;;;;;;;7.10;4.60;;;19.50;91.50;;;;;;5103987;28;20189;-86
2023/10/08 08:41:22;;;;;;;7.00;4.37;;;19.60;91.40;;;;;;5085884;28;20227;-86
2023/10/08 08:43:49;;;;;;;7.53;4.03;;;19.50;90.50;;;;;;5073446;28;20461;-86
2023/10/08 08:46:15;;;;;;;4.65;3.65;;;19.20;90.80;;;;;;5090001;28;20259;-86
2023/10/08 08:48:44;;;;;;;5.03;3.93;;;19.50;90.70;;;;;;5090608;28;20231;-86
2023/10/08 08:51:09;;;;;;;7.95;4.88;;;19.80;90.50;;;;;;5070481;28;20481;-86
2023/10/08 08:53:39;;;;;;;5.63;3.57;;;20.00;91.10;;;;;;5091115;28;20200;-86
2023/10/08 08:56:09;;;;;;;8.02;4.88;;;20.40;90.00;;;;;;5113673;28;20188;-86
2023/10/08 08:58:35;;;;;;;5.90;4.47;;;20.40;90.00;;;;;;5084876;28;20528;-86
2023/10/08 09:01:03;;;;;;;5.63;3.35;;;20.50;89.00;;;;;;5069059;28;20208;-86
2023/10/08 09:03:32;;;;;;;6.47;4.07;;;20.60;87.80;;;;;;5080531;28;20287;-86
2023/10/08 09:06:01;;;;;;;11.50;4.43;;;20.90;87.40;;;;;;5073966;28;20180;-86
2023/10/08 09:08:34;;;;;;;9.77;4.10;;;20.90;87.90;;;;;;5081351;28;20380;-86
2023/10/08 09:11:04;;;;;;;4.60;4.10;;;20.70;86.40;;;;;;5073908;28;20185;-86
2023/10/08 09:13:34;;;;;;;4.68;3.90;;;20.90;88.00;;;;;;5078938;28;20204;-86
2023/10/08 09:16:08;;;;;;;6.63;3.92;;;20.80;87.60;;;;;;5088485;28;20202;-84
2023/10/08 09:18:34;;;;;;;5.82;2.95;;;20.80;86.00;;;;;;5093475;28;20245;-83
2023/10/08 09:21:22;;;;;;;6.45;3.30;;;20.80;84.30;;;;;;5076498;28;20555;-83
2023/10/08 09:23:54;;;;;;;5.40;3.13;;;21.00;83.60;;;;;;5071348;28;20200;-83
2023/10/08 09:26:29;;;;;;;8.33;3.83;;;21.30;82.10;;;;;;5068789;28;20709;-83
2023/10/08 09:28:54;;;;;;;7.07;3.65;;;21.50;80.70;;;;;;5093772;28;20910;-83
2023/10/08 09:31:23;;;;;;;5.63;3.50;;;22.30;79.80;;;;;;5077160;28;20188;-83
2023/10/08 09:33:56;;;;;;;7.47;3.17;;;22.10;78.60;;;;;;5072714;28;20478;-83
2023/10/08 09:36:31;;;;;;;5.70;4.30;;;22.70;79.90;;;;;;5073973;28;20443;-83
2023/10/08 09:39:00;;;;;;;4.20;3.47;;;23.10;79.10;;;;;;5075857;28;20439;-83
2023/10/08 09:41:28;;;;;;;8.03;3.77;;;23.20;75.90;;;;;;5095285;28;20477;-83
2023/10/08 09:43:54;;;;;;;6.80;3.50;;;22.90;77.90;;;;;;5087073;28;20457;-83
2023/10/08 09:46:22;;;;;;;8.37;3.50;;;23.80;80.30;;;;;;5078777;28;20506;-84
2023/10/08 09:48:54;;;;;;;6.10;4.50;;;23.40;77.80;;;;;;5076145;28;20447;-85
2023/10/08 09:51:20;;;;;;;5.73;4.23;;;24.10;79.30;;;;;;5083851;28;20510;-86
2023/10/08 09:54:01;;;;;;;4.30;3.40;;;24.00;79.00;;;;;;5067237;28;20490;-89
2023/10/08 09:56:31;;;;;;;4.70;3.50;;;23.90;75.40;;;;;;5101481;28;20469;-88
2023/10/08 09:58:59;;;;;;;8.40;3.47;;;23.80;72.60;;;;;;5083717;28;20447;-88
2023/10/08 10:01:26;;;;;;;9.47;3.60;;;23.80;73.70;;;;;;5059273;28;20467;-86
2023/10/08 10:03:52;;;;;;;7.60;4.10;;;23.80;74.90;;;;;;5072107;28;20966;-87
2023/10/08 10:06:18;;;;;;;4.80;2.90;;;24.00;74.00;;;;;;5065183;28;20542;-87
2023/10/08 10:08:45;;;;;;;5.93;3.57;;;23.90;72.60;;;;;;5070175;28;20271;-87
2023/10/08 10:11:11;;;;;;;5.23;4.40;;;24.30;74.10;;;;;;5070028;28;20827;-87
2023/10/08 10:13:44;;;;;;;5.13;4.40;;;24.40;74.00;;;;;;5061972;28;20531;-87
2023/10/08 10:16:13;;;;;;;9.03;3.43;;;24.60;74.00;;;;;;5062819;28;20477;-87
2023/10/08 10:18:39;;;;;;;4.73;3.27;;;24.20;75.10;;;;;;5063531;28;20451;-87
2023/10/08 10:21:13;;;;;;;4.20;3.30;;;24.20;74.30;;;;;;5065415;28;20473;-87
2023/10/08 10:23:40;;;;;;;7.40;3.37;;;24.70;72.90;;;;;;5064745;28;20996;-87
2023/10/08 10:26:33;;;;;;;4.10;2.87;;;24.20;72.50;;;;;;5064189;28;20462;-87
2023/10/08 10:29:14;;;;;;;6.10;4.03;;;24.00;73.60;;;;;;5068158;28;20446;-87
2023/10/08 10:31:53;;;;;;;5.30;3.50;;;24.10;74.00;;;;;;5070517;28;20444;-87
2023/10/08 10:34:21;;;;;;;4.87;3.40;;;24.30;73.50;;;;;;5070703;28;20449;-87
2023/10/08 10:36:50;;;;;;;4.40;3.40;;;24.70;73.90;;;;;;5067115;28;20799;-87
2023/10/08 10:39:31;;;;;;;8.13;3.53;;;24.30;72.20;;;;;;5067620;28;20500;-87
2023/10/08 10:42:02;;;;;;;10.40;4.10;;;24.70;72.00;;;;;;5070168;28;21007;-87
2023/10/08 10:44:32;;;;;;;6.00;3.70;;;24.20;71.10;;;;;;5067563;28;20443;-87
2023/10/08 10:52:44;;;;;;;6.47;3.50;;;25.00;71.30;;;;;;5084028;28;20781;-87
2023/10/08 10:58:02;;;;;;;4.57;3.73;;;24.80;70.70;;;;;;5087654;28;20812;-87
2023/10/08 11:03:02;;;;;;;5.47;3.30;;;25.10;71.50;;;;;;5087141;28;20450;-87
2023/10/08 11:05:29;;;;;;;6.03;4.00;;;25.40;71.90;;;;;;5066958;28;20499;-87
2023/10/08 11:08:04;;;;;;;5.03;4.00;;;24.90;71.60;;;;;;5066620;28;20468;-87
2023/10/08 11:10:31;;;;;;;4.67;3.60;;;24.50;71.60;;;;;;5087455;28;20449;-87
2023/10/08 11:13:00;;;;;;;4.90;3.20;;;24.60;71.70;;;;;;5055202;28;20912;-87
2023/10/08 11:15:40;;;;;;;5.00;4.17;;;24.30;72.00;;;;;;5064898;28;20766;-88
2023/10/08 11:18:15;;;;;;;5.67;4.40;;;24.40;72.80;;;;;;5066965;28;20442;-86
2023/10/08 11:20:44;;;;;;;5.47;3.97;;;24.60;71.90;;;;;;5067876;28;20483;-87
2023/10/08 11:23:19;;;;;;;4.27;3.73;;;24.40;72.10;;;;;;5067753;28;20468;-87
2023/10/08 11:26:02;;;;;;;8.73;4.60;;;24.20;71.70;;;;;;5071209;28;20545;-87
2023/10/08 11:28:29;;;;;;;5.53;3.90;;;24.10;75.10;;;;;;5103981;28;20447;-87
2023/10/08 11:30:59;;;;;;;6.23;3.83;;;24.50;76.50;;;;;;5078919;28;20793;-87
2023/10/08 11:33:27;;;;;;;4.60;3.13;;;24.00;74.60;;;;;;5067226;28;21005;-87
2023/10/08 11:36:01;;;;;;;5.77;3.53;;;24.20;73.90;;;;;;5068665;28;20439;-87
2023/10/08 11:38:27;;;;;;;6.87;3.70;;;24.20;74.20;;;;;;5065391;28;20442;-87
2023/10/08 11:40:56;;;;;;;5.80;3.77;;;24.10;74.50;;;;;;5071868;28;20787;-87
2023/10/08 11:43:24;;;;;;;6.83;4.30;;;24.10;72.80;;;;;;5086818;28;20254;-87
2023/10/08 11:45:52;;;;;;;9.73;3.70;;;24.50;72.70;;;;;;5065179;28;20962;-86
2023/10/08 11:48:25;;;;;;;6.73;3.60;;;24.40;72.70;;;;;;5069878;28;20449;-87
2023/10/08 11:50:51;;;;;;;5.90;3.57;;;24.50;72.40;;;;;;5071556;28;20476;-87
2023/10/08 11:53:19;;;;;;;6.83;3.70;;;24.70;72.50;;;;;;5070128;28;20476;-87
2023/10/08 11:55:44;;;;;;;4.23;3.80;;;25.10;72.90;;;;;;5067601;28;20551;-87
2023/10/08 11:58:10;;;;;;;5.87;4.33;;;25.40;71.40;;;;;;5086656;28;20488;-87
2023/10/08 12:00:46;;;;;;;5.17;4.03;;;26.20;71.60;;;;;;5069524;28;20469;-87
2023/10/08 12:03:18;;;;;;;9.00;4.10;;;25.70;70.80;;;;;;5069230;28;20218;-87
2023/10/08 12:05:48;;;;;;;7.37;4.03;;;25.50;69.30;;;;;;5072264;28;20464;-87
2023/10/08 12:08:18;;;;;;;4.93;3.83;;;25.70;70.80;;;;;;5066685;28;20438;-87
2023/10/08 12:10:48;;;;;;;8.57;4.10;;;26.50;69.60;;;;;;5090828;28;20843;-87
2023/10/08 12:13:16;;;;;;;4.93;3.23;;;25.90;68.10;;;;;;5070631;28;20470;-87
2023/10/08 12:15:44;;;;;;;5.73;2.70;;;26.00;67.30;;;;;;5084778;28;20572;-87
2023/10/08 12:18:24;;;;;;;4.77;3.30;;;26.20;67.70;;;;;;5068123;28;20446;-87
2023/10/08 12:20:50;;;;;;;4.13;2.70;;;26.30;68.00;;;;;;5069829;28;20477;-87
2023/10/08 12:23:25;;;;;;;5.43;3.37;;;26.40;67.60;;;;;;5076326;28;20743;-87
2023/10/08 12:25:57;;;;;;;5.07;3.50;;;26.40;68.30;;;;;;5070564;28;20429;-87
2023/10/08 12:28:24;;;;;;;4.77;3.83;;;26.20;67.10;;;;;;5067137;28;20820;-88
2023/10/08 12:30:52;;;;;;;8.83;3.97;;;26.20;69.40;;;;;;5067121;28;20810;-88
2023/10/08 12:33:19;;;;;;;8.03;4.17;;;26.70;67.30;;;;;;5071391;28;20988;-87
2023/10/08 12:35:48;;;;;;;6.90;3.53;;;26.40;68.50;;;;;;5069124;28;20446;-88
2023/10/08 12:38:14;;;;;;;5.87;3.50;;;25.80;69.30;;;;;;5066699;28;20453;-87
2023/10/08 12:41:13;;;;;;;4.83;3.67;;;26.10;66.80;;;;;;5082992;28;20992;-88
2023/10/08 12:43:32;;;;;;;5.70;3.77;;;25.60;66.70;;;;;;5079976;28;20234;-87
2023/10/08 12:45:57;;;;;;;8.03;4.20;;;27.10;68.90;;;;;;5066637;28;20441;-87
2023/10/08 12:48:27;;;;;;;5.73;4.37;;;25.90;69.20;;;;;;5068327;28;20191;-87
2023/10/08 12:50:56;;;;;;;7.00;4.17;;;26.40;69.80;;;;;;5070012;28;20179;-87
2023/10/08 12:53:39;;;;;;;5.43;3.27;;;25.90;69.00;;;;;;5069763;28;20477;-88
2023/10/08 12:56:15;;;;;;;9.17;3.93;;;26.10;68.40;;;;;;5076427;28;20856;-87
2023/10/08 12:58:44;;;;;;;12.87;4.60;;;26.10;67.90;;;;;;5072219;28;20495;-87
2023/10/08 13:01:11;;;;;;;10.30;4.60;;;25.70;67.60;;;;;;5067853;28;20964;-87
2023/10/08 13:03:47;;;;;;;10.80;4.00;;;26.30;64.70;;;;;;5072537;28;20565;-87
2023/10/08 13:06:22;;;;;;;12.73;4.60;;;26.10;65.10;;;;;;5081008;28;20486;-87
2023/10/08 13:08:49;;;;;;;12.97;4.40;;;25.70;60.70;;;;;;5070726;28;21141;-87
2023/10/08 13:11:14;;;;;;;9.67;4.43;;;25.80;61.80;;;;;;5077036;28;20473;-87
2023/10/08 13:13:41;;;;;;;5.60;3.70;;;26.60;60.30;;;;;;5091366;28;20599;-87
2023/10/08 13:16:09;;;;;;;8.77;4.37;;;26.50;60.50;;;;;;5077695;28;20240;-88
2023/10/08 13:18:37;;;;;;;9.47;4.30;;;27.30;63.40;;;;;;5084314;28;20452;-87
2023/10/08 13:21:03;;;;;;;7.47;3.97;;;26.50;63.00;;;;;;5072550;28;20480;-87
2023/10/08 13:23:29;;;;;;;13.60;3.97;;;26.20;62.90;;;;;;5073903;28;20466;-89
2023/10/08 13:25:55;;;;;;;8.00;3.80;;;26.20;59.60;;;;;;5072157;28;20434;-86
2023/10/08 13:28:26;;;;;;;7.30;3.10;;;26.00;59.20;;;;;;5075524;28;20637;-88
2023/10/08 13:30:52;;;;;;;5.73;2.53;;;26.20;62.40;;;;;;5069075;28;20192;-87
2023/10/08 13:33:24;;;;;;;3.80;2.23;;;26.00;63.10;;;;;;5069632;28;20473;-89
2023/10/08 13:35:50;;;;;;;7.60;3.97;;;26.10;63.70;;;;;;5065555;28;20461;-92
2023/10/08 13:38:19;;;;;;;6.00;2.77;;;25.90;61.20;;;;;;5088601;28;20449;-92
2023/10/08 13:41:14;;;;;;;11.40;3.47;;;26.10;62.70;;;;;;5081922;28;20480;-90
2023/10/08 13:43:47;;;;;;;8.27;3.60;;;25.50;63.30;;;;;;5076281;28;20498;-90
2023/10/08 13:46:17;;;;;;;6.10;3.17;;;25.40;62.80;;;;;;5069029;28;20950;-91
2023/10/08 13:48:46;;;;;;;6.00;2.80;;;25.40;62.30;;;;;;5056525;28;21354;-90
2023/10/08 13:51:20;;;;;;;5.30;2.80;;;25.70;62.40;;;;;;5069695;28;20438;-89
2023/10/08 13:53:59;;;;;;;8.27;4.05;;;25.40;63.00;;;;;;5069397;28;20441;-90
2023/10/08 13:56:30;;;;;;;7.40;3.47;;;25.90;61.60;;;;;;5077514;28;20194;-90
2023/10/08 13:59:16;;;;;;;7.80;4.10;;;26.90;63.60;;;;;;5071266;28;20457;-89
2023/10/08 14:01:51;;;;;;;5.53;2.97;;;25.40;61.00;;;;;;5073466;28;20467;-92
2023/10/08 14:04:19;;;;;;;7.00;4.10;;;25.80;64.00;;;;;;5088652;28;20442;-91
2023/10/08 14:06:51;;;;;;;9.10;3.33;;;25.40;60.40;;;;;;5087899;28;20187;-89
2023/10/08 14:09:21;;;;;;;7.47;4.33;;;25.70;64.10;;;;;;5066118;28;20451;-91
2023/10/08 14:11:50;;;;;;;5.73;3.07;;;25.30;60.70;;;;;;5076928;28;20444;-89